createdAt,value
2018-04-16T04:34:20.527Z,12.24
2018-04-16T04:35:20.430Z,12.20
2018-04-16T04:36:20.352Z,12.24
2018-04-16T04:37:20.381Z,12.19
2018-04-16T04:38:20.382Z,12.14
2018-04-16T04:39:20.335Z,12.14
2018-04-16T04:40:20.318Z,12.05
2018-04-16T04:41:20.303Z,12.09
2018-04-16T04:42:20.283Z,12.04
2018-04-16T04:43:20.543Z,12.05
2018-04-16T04:44:20.277Z,12.10
2018-04-16T04:45:20.285Z,12.13
2018-04-16T04:46:20.224Z,12.07
2018-04-16T04:47:20.233Z,12.19
2018-04-16T04:48:20.203Z,12.20
2018-04-16T04:49:20.216Z,12.20
2018-04-16T04:50:20.166Z,12.21
2018-04-16T04:51:20.179Z,12.29
2018-04-16T04:52:20.169Z,12.34
2018-04-16T04:53:20.154Z,12.34
2018-04-16T04:54:20.144Z,12.35
2018-04-16T04:55:20.130Z,12.35
2018-04-16T04:56:20.155Z,12.38
2018-04-16T04:57:20.096Z,12.32
2018-04-16T04:58:20.085Z,12.35
2018-04-16T04:59:20.513Z,12.37
2018-04-16T05:00:20.060Z,12.35
2018-04-16T05:01:20.034Z,12.28
2018-04-16T05:02:20.027Z,12.35
2018-04-16T05:03:20.025Z,12.37
2018-04-16T05:04:20.036Z,12.38
2018-04-16T05:05:20.092Z,12.32
2018-04-16T05:06:19.994Z,12.35
2018-04-16T05:07:19.988Z,12.49
2018-04-16T05:08:19.973Z,12.31
2018-04-16T05:09:19.937Z,12.31
2018-04-16T05:10:19.942Z,12.34
2018-04-16T05:11:19.938Z,12.42
2018-04-16T05:12:19.938Z,12.41
2018-04-16T05:13:19.923Z,12.38
2018-04-16T05:14:19.915Z,12.35
2018-04-16T05:15:19.897Z,12.38
2018-04-16T05:16:19.910Z,12.28
2018-04-16T05:17:20.072Z,12.32
2018-04-16T05:18:19.864Z,12.27
2018-04-16T05:19:19.840Z,12.27
2018-04-16T05:20:19.812Z,12.31
2018-04-16T05:21:19.812Z,12.21
2018-04-16T05:22:19.810Z,12.31
2018-04-16T05:23:19.816Z,12.21
2018-04-16T05:24:19.764Z,12.27
2018-04-16T05:25:19.771Z,12.31
2018-04-16T05:26:19.774Z,12.31
2018-04-16T05:27:19.780Z,12.27
2018-04-16T05:28:19.780Z,12.23
2018-04-16T05:29:19.707Z,12.14
2018-04-16T05:30:20.060Z,12.10
2018-04-16T05:31:19.682Z,12.05
2018-04-16T05:32:19.676Z,12.07
2018-04-16T05:33:19.674Z,12.13
2018-04-16T05:34:19.687Z,12.10
2018-04-16T05:35:19.667Z,12.14
2018-04-16T05:36:19.641Z,12.20
2018-04-16T05:37:19.642Z,12.19
2018-04-16T05:38:19.632Z,12.21
2018-04-16T05:39:19.652Z,12.20
2018-04-16T05:40:19.610Z,12.37
2018-04-16T05:41:19.592Z,12.24
2018-04-16T05:42:19.645Z,12.31
2018-04-16T05:43:19.573Z,12.34
2018-04-16T05:44:19.559Z,12.35
2018-04-16T05:45:19.525Z,12.27
2018-04-16T05:46:19.533Z,12.39
2018-04-16T05:47:19.509Z,12.34
2018-04-16T05:48:19.511Z,12.35
2018-04-16T05:49:19.505Z,12.29
2018-04-16T05:50:19.478Z,12.34
2018-04-16T05:51:19.493Z,12.37
2018-04-16T05:52:19.457Z,12.46
2018-04-16T05:53:19.511Z,12.45
2018-04-16T05:54:19.452Z,12.42
2018-04-16T05:55:19.417Z,12.39
2018-04-16T05:56:19.402Z,12.39
2018-04-16T05:57:19.400Z,12.41
2018-04-16T05:58:19.399Z,12.37
2018-04-16T05:59:19.413Z,12.41
2018-04-16T06:00:19.411Z,12.41
2018-04-16T06:01:19.366Z,12.46
2018-04-16T06:02:19.362Z,12.56
2018-04-16T06:03:19.353Z,12.49
2018-04-16T06:04:19.338Z,12.57
2018-04-16T06:05:19.376Z,12.62
2018-04-16T06:06:19.301Z,12.72
2018-04-16T06:07:19.286Z,12.68
2018-04-16T06:08:19.289Z,12.72
2018-04-16T06:09:19.263Z,12.71
2018-04-16T06:10:19.246Z,12.74
2018-04-16T06:11:19.285Z,12.74
2018-04-16T06:12:19.269Z,12.77
2018-04-16T06:13:19.205Z,12.83
2018-04-16T06:14:19.224Z,12.79
2018-04-16T06:15:19.206Z,12.87
2018-04-16T06:16:19.199Z,12.87
2018-04-16T06:17:19.215Z,12.93
2018-04-16T06:18:19.159Z,12.93
2018-04-16T06:19:19.149Z,12.83
2018-04-16T06:20:19.138Z,12.79
2018-04-16T06:21:19.297Z,12.75
2018-04-16T06:22:19.128Z,12.77
2018-04-16T06:23:19.130Z,12.72
2018-04-16T06:24:19.103Z,12.70
2018-04-16T06:25:19.078Z,12.65
2018-04-16T06:26:19.087Z,12.62
2018-04-16T06:27:19.157Z,12.62
2018-04-16T06:28:19.047Z,12.62
2018-04-16T06:29:19.063Z,12.65
2018-04-16T06:30:19.020Z,12.71
2018-04-16T06:31:19.031Z,12.64
2018-04-16T06:32:19.090Z,12.60
2018-04-16T06:33:18.996Z,12.57
2018-04-16T06:34:18.993Z,12.54
2018-04-16T06:35:18.987Z,12.56
2018-04-16T06:36:18.949Z,12.54
2018-04-16T06:37:18.945Z,12.57
2018-04-16T06:38:18.971Z,12.56
2018-04-16T06:39:18.944Z,12.67
2018-04-16T06:40:18.907Z,12.72
2018-04-16T06:41:18.924Z,12.70
2018-04-16T06:42:18.948Z,12.72
2018-04-16T06:43:18.902Z,12.82
2018-04-16T06:44:18.865Z,12.78
2018-04-16T06:45:18.882Z,12.86
2018-04-16T06:46:18.863Z,12.92
2018-04-16T06:47:19.123Z,12.96
2018-04-16T06:48:18.843Z,13.03
2018-04-16T06:49:18.811Z,13.03
2018-04-16T06:50:18.845Z,13.04
2018-04-16T06:51:18.793Z,12.97
2018-04-16T06:52:18.861Z,13.05
2018-04-16T06:53:18.799Z,13.08
2018-04-16T06:54:18.769Z,13.07
2018-04-16T06:55:18.770Z,13.08
2018-04-16T06:56:18.761Z,13.19
2018-04-16T06:57:18.899Z,13.20
2018-04-16T06:58:18.739Z,13.22
2018-04-16T06:59:18.704Z,13.26
2018-04-16T07:00:18.720Z,13.30
2018-04-16T07:01:18.725Z,13.38
2018-04-16T07:02:18.699Z,13.45
2018-04-16T07:03:18.797Z,13.42
2018-04-16T07:04:18.671Z,13.46
2018-04-16T07:05:18.671Z,13.60
2018-04-16T07:06:18.650Z,13.55
2018-04-16T07:07:18.637Z,13.59
2018-04-16T07:08:18.654Z,13.69
2018-04-16T07:09:18.652Z,13.75
2018-04-16T07:10:18.598Z,13.75
2018-04-16T07:11:18.573Z,13.85
2018-04-16T07:12:18.563Z,13.84
2018-04-16T07:13:18.647Z,13.87
2018-04-16T07:14:18.573Z,13.88
2018-04-16T07:15:18.571Z,13.91
2018-04-16T07:16:18.562Z,13.97
2018-04-16T07:17:18.521Z,14.02
2018-04-16T07:18:18.535Z,14.07
2018-04-16T07:19:18.514Z,14.02
2018-04-16T07:20:18.554Z,14.10
2018-04-16T07:21:18.505Z,14.10
2018-04-16T07:22:18.492Z,14.14
2018-04-16T07:23:18.476Z,14.17
2018-04-16T07:24:18.457Z,14.12
2018-04-16T07:25:18.440Z,14.21
2018-04-16T07:26:18.447Z,14.22
2018-04-16T07:27:18.457Z,14.21
2018-04-16T07:28:18.430Z,14.21
2018-04-16T07:29:18.461Z,14.29
2018-04-16T07:30:18.388Z,14.32
2018-04-16T07:31:18.421Z,14.32
2018-04-16T07:32:18.370Z,14.43
2018-04-16T07:33:18.368Z,14.37
2018-04-16T07:34:18.363Z,14.40
2018-04-16T07:35:18.369Z,14.47
2018-04-16T07:36:18.355Z,14.46
2018-04-16T07:37:18.351Z,14.47
2018-04-16T07:38:18.337Z,14.50
2018-04-16T07:39:18.304Z,14.64
2018-04-16T07:40:18.300Z,14.62
2018-04-16T07:41:18.430Z,14.72
2018-04-16T07:42:18.286Z,14.60
2018-04-16T07:43:18.296Z,14.70
2018-04-16T07:44:18.279Z,14.81
2018-04-16T07:45:18.272Z,14.89
2018-04-16T07:46:18.237Z,14.86
2018-04-16T07:47:18.288Z,14.86
2018-04-16T07:48:18.249Z,14.92
2018-04-16T07:49:18.237Z,14.98
2018-04-16T07:50:18.210Z,14.99
2018-04-16T07:51:18.218Z,15.02
2018-04-16T07:52:18.244Z,15.11
2018-04-16T07:53:18.340Z,15.06
2018-04-16T07:54:18.178Z,15.16
2018-04-16T07:55:18.189Z,15.20
2018-04-16T07:56:18.157Z,15.19
2018-04-16T07:57:18.167Z,15.19
2018-04-16T07:58:18.130Z,15.21
2018-04-16T07:59:18.155Z,15.21
2018-04-16T08:00:18.109Z,15.31
2018-04-16T08:01:18.107Z,15.25
2018-04-16T08:02:18.125Z,15.25
2018-04-16T08:03:18.111Z,15.17
2018-04-16T08:04:18.232Z,15.19
2018-04-16T08:05:18.075Z,15.21
2018-04-16T08:06:18.084Z,15.34
2018-04-16T08:07:18.067Z,15.35
2018-04-16T08:08:18.079Z,15.38
2018-04-16T08:09:18.055Z,15.49
2018-04-16T08:10:18.102Z,15.44
2018-04-16T08:11:18.033Z,15.46
2018-04-16T08:12:18.027Z,15.54
2018-04-16T08:13:18.047Z,15.53
2018-04-16T08:14:18.016Z,15.54
2018-04-16T08:15:18.000Z,15.54
2018-04-16T08:16:17.992Z,15.65
2018-04-16T08:17:17.986Z,15.62
2018-04-16T08:18:17.987Z,15.60
2018-04-16T08:19:18.021Z,15.68
2018-04-16T08:20:18.011Z,15.69
2018-04-16T08:21:18.104Z,15.76
2018-04-16T08:22:17.953Z,15.69
2018-04-16T08:23:17.933Z,15.76
2018-04-16T08:24:17.927Z,15.80
2018-04-16T08:25:17.904Z,15.89
2018-04-16T08:26:17.908Z,15.97
2018-04-16T08:27:18.041Z,15.94
2018-04-16T08:28:17.891Z,16.04
2018-04-16T08:29:17.885Z,16.09
2018-04-16T08:30:17.882Z,16.12
2018-04-16T08:31:17.858Z,16.11
2018-04-16T08:32:17.835Z,16.21
2018-04-16T08:33:17.877Z,16.28
2018-04-16T08:34:17.831Z,16.21
2018-04-16T08:35:17.839Z,16.14
2018-04-16T08:36:17.865Z,16.15
2018-04-16T08:37:17.808Z,16.17
2018-04-16T08:38:17.827Z,16.28
2018-04-16T08:39:17.791Z,16.33
2018-04-16T08:40:17.790Z,16.34
2018-04-16T08:41:17.789Z,16.17
2018-04-16T08:42:17.784Z,16.25
2018-04-16T08:43:17.838Z,16.33
2018-04-16T08:44:17.767Z,16.38
2018-04-16T08:45:17.771Z,16.31
2018-04-16T08:46:17.758Z,16.31
2018-04-16T08:47:17.755Z,16.38
2018-04-16T08:48:17.718Z,16.34
2018-04-16T08:49:18.110Z,16.34
2018-04-16T08:50:17.736Z,16.42
2018-04-16T08:51:17.712Z,16.41
2018-04-16T08:52:17.723Z,16.34
2018-04-16T08:53:17.711Z,16.48
2018-04-16T08:54:17.705Z,16.50
2018-04-16T08:55:17.715Z,16.53
2018-04-16T08:56:17.684Z,16.56
2018-04-16T08:57:17.675Z,16.66
2018-04-16T08:58:17.687Z,16.66
2018-04-16T08:59:17.719Z,16.53
2018-04-16T09:00:17.674Z,16.50
2018-04-16T09:01:17.639Z,16.33
2018-04-16T09:02:17.636Z,16.41
2018-04-16T09:03:17.655Z,16.45
2018-04-16T09:04:17.683Z,16.50
2018-04-16T09:05:17.632Z,16.58
2018-04-16T09:06:17.618Z,16.53
2018-04-16T09:07:17.622Z,16.66
2018-04-16T09:08:17.615Z,16.71
2018-04-16T09:09:17.593Z,16.78
2018-04-16T09:10:17.586Z,16.88
2018-04-16T09:11:17.610Z,16.83
2018-04-16T09:12:17.577Z,16.93
2018-04-16T09:13:17.578Z,16.91
2018-04-16T09:14:17.592Z,17.07
2018-04-16T09:15:17.587Z,17.01
2018-04-16T09:16:17.571Z,17.01
2018-04-16T09:17:17.557Z,16.94
2018-04-16T09:18:17.553Z,16.89
2018-04-16T09:19:17.547Z,16.93
2018-04-16T09:20:17.515Z,16.86
2018-04-16T09:21:17.548Z,16.96
2018-04-16T09:22:17.524Z,17.01
2018-04-16T09:23:17.510Z,17.08
2018-04-16T09:24:17.523Z,17.18
2018-04-16T09:25:17.483Z,17.14
2018-04-16T09:26:17.521Z,17.07
2018-04-16T09:27:17.643Z,17.15
2018-04-16T09:28:17.468Z,17.26
2018-04-16T09:29:17.497Z,17.38
2018-04-16T09:30:17.469Z,17.43
2018-04-16T09:31:17.486Z,17.43
2018-04-16T09:32:17.475Z,17.37
2018-04-16T09:33:17.463Z,17.46
2018-04-16T09:34:17.457Z,17.51
2018-04-16T09:35:17.480Z,17.66
2018-04-16T09:36:17.444Z,17.87
2018-04-16T09:37:17.466Z,17.95
2018-04-16T09:38:17.533Z,17.87
2018-04-16T09:39:17.450Z,17.82
2018-04-16T09:40:17.433Z,17.71
2018-04-16T09:41:17.439Z,17.59
2018-04-16T09:42:17.421Z,17.52
2018-04-16T09:43:17.438Z,17.48
2018-04-16T09:44:17.660Z,17.48
2018-04-16T09:45:17.439Z,17.26
2018-04-16T09:46:17.408Z,17.31
2018-04-16T09:47:17.461Z,17.40
2018-04-16T09:48:17.414Z,17.37
2018-04-16T09:49:17.375Z,17.44
2018-04-16T09:50:17.592Z,17.36
2018-04-16T09:51:17.366Z,17.31
2018-04-16T09:52:17.380Z,17.34
2018-04-16T09:53:17.363Z,17.23
2018-04-16T09:54:17.375Z,17.36
2018-04-16T09:55:17.374Z,17.48
2018-04-16T09:56:17.436Z,17.54
2018-04-16T09:57:17.359Z,17.75
2018-04-16T09:58:17.364Z,17.90
2018-04-16T09:59:17.353Z,18.08
2018-04-16T10:00:17.382Z,18.15
2018-04-16T10:01:17.333Z,18.23
2018-04-16T10:02:17.350Z,18.26
2018-04-16T10:03:17.338Z,18.30
2018-04-16T10:04:17.334Z,18.25
2018-04-16T10:05:17.319Z,18.32
2018-04-16T10:06:17.307Z,18.47
2018-04-16T10:07:17.362Z,18.47
2018-04-16T10:08:17.300Z,18.57
2018-04-16T10:09:17.294Z,18.50
2018-04-16T10:10:17.311Z,18.45
2018-04-16T10:11:17.310Z,18.39
2018-04-16T10:12:17.330Z,18.32
2018-04-16T10:13:17.316Z,18.36
2018-04-16T10:14:17.305Z,18.26
2018-04-16T10:15:17.314Z,18.27
2018-04-16T10:16:17.286Z,18.27
2018-04-16T10:17:17.310Z,18.33
2018-04-16T10:18:17.655Z,18.25
2018-04-16T10:19:17.279Z,18.20
2018-04-16T10:20:17.267Z,18.18
2018-04-16T10:21:17.276Z,18.07
2018-04-16T10:22:17.268Z,18.23
2018-04-16T10:23:17.280Z,18.30
2018-04-16T10:24:17.268Z,18.36
2018-04-16T10:25:17.257Z,18.52
2018-04-16T10:26:17.338Z,18.63
2018-04-16T10:27:17.275Z,18.80
2018-04-16T10:28:17.276Z,19.02
2018-04-16T10:29:17.308Z,19.13
2018-04-16T10:30:17.303Z,19.13
2018-04-16T10:31:17.245Z,19.26
2018-04-16T10:32:17.253Z,19.40
2018-04-16T10:33:17.264Z,19.50
2018-04-16T10:34:17.273Z,19.54
2018-04-16T10:35:17.271Z,19.71
2018-04-16T10:36:17.265Z,19.73
2018-04-16T10:37:17.261Z,19.74
2018-04-16T10:38:17.231Z,19.80
2018-04-16T10:39:17.369Z,20.02
2018-04-16T10:40:17.255Z,20.08
2018-04-16T10:41:17.255Z,20.11
2018-04-16T10:42:17.251Z,19.84
2018-04-16T10:43:17.261Z,19.77
2018-04-16T10:44:17.255Z,19.55
2018-04-16T10:45:17.288Z,19.33
2018-04-16T10:46:17.243Z,19.08
2018-04-16T10:47:17.262Z,18.81
2018-04-16T10:48:17.240Z,18.67
2018-04-16T10:49:17.258Z,18.57
2018-04-16T10:50:17.250Z,18.47
2018-04-16T10:51:17.267Z,18.37
2018-04-16T10:52:17.249Z,18.33
2018-04-16T10:53:17.238Z,18.39
2018-04-16T10:54:17.240Z,18.32
2018-04-16T10:55:17.221Z,18.33
2018-04-16T10:56:17.224Z,18.36
2018-04-16T10:57:17.231Z,18.35
2018-04-16T10:58:17.221Z,18.14
2018-04-16T10:59:17.198Z,18.00
2018-04-16T11:00:17.205Z,17.93
2018-04-16T11:01:17.222Z,17.82
2018-04-16T11:02:17.189Z,17.92
2018-04-16T11:03:17.211Z,17.95
2018-04-16T11:04:17.192Z,17.84
2018-04-16T11:05:17.204Z,17.97
2018-04-16T11:06:17.260Z,17.95
2018-04-16T11:07:17.195Z,17.87
2018-04-16T11:08:17.190Z,17.92
2018-04-16T11:09:17.202Z,17.77
2018-04-16T11:10:17.157Z,17.68
2018-04-16T11:11:17.198Z,17.72
2018-04-16T11:12:17.168Z,17.68
2018-04-16T11:13:17.161Z,17.62
2018-04-16T11:14:17.149Z,17.79
2018-04-16T11:15:17.126Z,17.96
2018-04-16T11:16:17.149Z,18.12
2018-04-16T11:17:17.166Z,18.35
2018-04-16T11:18:17.170Z,18.37
2018-04-16T11:19:17.127Z,18.27
2018-04-16T11:20:17.132Z,18.30
2018-04-16T11:21:17.128Z,18.32
2018-04-16T11:22:17.123Z,18.32
2018-04-16T11:23:17.691Z,18.20
2018-04-16T11:24:17.113Z,18.08
2018-04-16T11:25:17.171Z,18.05
2018-04-16T11:26:17.102Z,18.00
2018-04-16T11:27:17.083Z,17.90
2018-04-16T11:28:17.102Z,17.86
2018-04-16T11:29:17.086Z,17.84
2018-04-16T11:30:17.063Z,17.96
2018-04-16T11:31:17.221Z,18.03
2018-04-16T11:32:17.118Z,18.15
2018-04-16T11:33:17.049Z,18.32
2018-04-16T11:34:17.072Z,18.47
2018-04-16T11:35:17.069Z,18.58
2018-04-16T11:36:17.042Z,18.73
2018-04-16T11:37:17.079Z,18.80
2018-04-16T11:38:17.116Z,18.87
2018-04-16T11:39:17.041Z,18.95
2018-04-16T11:40:17.019Z,18.94
2018-04-16T11:41:17.034Z,18.92
2018-04-16T11:42:17.010Z,19.02
2018-04-16T11:43:17.022Z,19.13
2018-04-16T11:44:17.249Z,19.16
2018-04-16T11:45:17.019Z,19.26
2018-04-16T11:46:17.013Z,19.25
2018-04-16T11:47:17.013Z,19.43
2018-04-16T11:48:16.996Z,19.37
2018-04-16T11:49:17.016Z,19.40
2018-04-16T11:50:16.992Z,19.32
2018-04-16T11:51:16.985Z,19.21
2018-04-16T11:52:17.007Z,19.29
2018-04-16T11:53:16.992Z,19.41
2018-04-16T11:54:17.002Z,19.47
2018-04-16T11:55:17.013Z,19.46
2018-04-16T11:56:16.995Z,19.44
2018-04-16T11:57:16.997Z,19.48
2018-04-16T11:58:17.002Z,19.37
2018-04-16T11:59:16.984Z,19.46
2018-04-16T12:00:17.036Z,19.36
2018-04-16T12:01:16.965Z,19.43
2018-04-16T12:02:16.977Z,19.47
2018-04-16T12:03:16.963Z,19.25
2018-04-16T12:04:17.054Z,19.23
2018-04-16T12:05:16.964Z,19.29
2018-04-16T12:06:17.112Z,19.18
2018-04-16T12:07:16.979Z,19.28
2018-04-16T12:08:16.958Z,19.25
2018-04-16T12:09:16.968Z,19.29
2018-04-16T12:10:16.981Z,19.36
2018-04-16T12:11:16.952Z,19.18
2018-04-16T12:12:16.979Z,19.07
2018-04-16T12:13:16.946Z,18.94
2018-04-16T12:14:16.945Z,18.94
2018-04-16T12:15:16.966Z,19.04
2018-04-16T12:16:16.976Z,18.90
2018-04-16T12:17:16.963Z,18.91
2018-04-16T12:18:17.119Z,18.91
2018-04-16T12:19:16.962Z,19.08
2018-04-16T12:20:16.959Z,19.10
2018-04-16T12:21:16.954Z,19.08
2018-04-16T12:22:17.017Z,19.26
2018-04-16T12:23:16.952Z,19.18
2018-04-16T12:24:16.985Z,19.14
2018-04-16T12:25:16.921Z,19.22
2018-04-16T12:26:16.934Z,19.21
2018-04-16T12:27:16.970Z,19.23
2018-04-16T12:28:16.944Z,19.37
2018-04-16T12:29:16.973Z,19.40
2018-04-16T12:30:16.961Z,19.56
2018-04-16T12:31:16.963Z,19.46
2018-04-16T12:32:17.005Z,19.41
2018-04-16T12:33:16.908Z,19.39
2018-04-16T12:34:16.931Z,19.44
2018-04-16T12:35:16.897Z,19.37
2018-04-16T12:36:16.924Z,19.40
2018-04-16T12:37:16.909Z,19.29
2018-04-16T12:38:16.989Z,19.32
2018-04-16T12:39:16.918Z,19.02
2018-04-16T12:40:16.912Z,19.00
2018-04-16T12:41:16.917Z,19.10
2018-04-16T12:42:16.901Z,19.00
2018-04-16T12:43:16.893Z,18.87
2018-04-16T12:44:16.913Z,18.85
2018-04-16T12:45:16.905Z,18.76
2018-04-16T12:46:16.902Z,18.92
2018-04-16T12:47:16.900Z,19.02
2018-04-16T12:48:16.941Z,19.18
2018-04-16T12:49:16.913Z,19.18
2018-04-16T12:50:16.880Z,19.21
2018-04-16T12:51:16.889Z,19.36
2018-04-16T12:52:16.861Z,19.51
2018-04-16T12:53:16.887Z,19.65
2018-04-16T12:54:16.863Z,19.76
2018-04-16T12:55:16.868Z,19.78
2018-04-16T12:56:16.869Z,19.88
2018-04-16T12:57:16.871Z,20.03
2018-04-16T12:58:16.872Z,19.96
2018-04-16T12:59:16.915Z,19.94
2018-04-16T13:00:16.869Z,19.92
2018-04-16T13:01:16.862Z,19.92
2018-04-16T13:02:16.833Z,20.10
2018-04-16T13:03:16.841Z,20.18
2018-04-16T13:04:16.855Z,20.20
2018-04-16T13:05:16.888Z,20.28
2018-04-16T13:06:16.866Z,20.14
2018-04-16T13:07:16.850Z,19.91
2018-04-16T13:08:16.839Z,19.69
2018-04-16T13:09:16.847Z,19.48
2018-04-16T13:10:16.870Z,19.31
2018-04-16T13:11:16.817Z,19.21
2018-04-16T13:12:16.835Z,19.04
2018-04-16T13:13:16.823Z,19.06
2018-04-16T13:14:16.812Z,18.80
2018-04-16T13:15:17.286Z,18.75
2018-04-16T13:16:16.831Z,18.87
2018-04-16T13:17:16.820Z,19.02
2018-04-16T13:18:16.827Z,19.36
2018-04-16T13:19:16.790Z,19.66
2018-04-16T13:20:16.808Z,19.88
2018-04-16T13:21:16.820Z,19.96
2018-04-16T13:22:16.794Z,20.31
2018-04-16T13:23:16.801Z,20.64
2018-04-16T13:24:16.778Z,20.76
2018-04-16T13:25:16.950Z,20.67
2018-04-16T13:26:16.773Z,20.70
2018-04-16T13:27:16.795Z,20.77
2018-04-16T13:28:16.813Z,20.88
2018-04-16T13:29:16.785Z,20.89
2018-04-16T13:30:16.794Z,20.55
2018-04-16T13:31:16.788Z,20.43
2018-04-16T13:32:16.798Z,20.41
2018-04-16T13:33:16.787Z,20.35
2018-04-16T13:34:16.767Z,20.36
2018-04-16T13:35:16.785Z,20.33
2018-04-16T13:36:16.800Z,20.33
2018-04-16T13:37:16.759Z,20.13
2018-04-16T13:38:16.763Z,20.02
2018-04-16T13:39:16.771Z,19.92
2018-04-16T13:40:16.788Z,19.84
2018-04-16T13:41:16.834Z,19.92
2018-04-16T13:42:16.811Z,19.99
2018-04-16T13:43:16.753Z,20.23
2018-04-16T13:44:16.797Z,20.51
2018-04-16T13:45:16.767Z,20.64
2018-04-16T13:46:16.775Z,20.89
2018-04-16T13:47:17.186Z,20.87
2018-04-16T13:48:16.769Z,20.69
2018-04-16T13:49:16.770Z,20.72
2018-04-16T13:50:16.764Z,20.72
2018-04-16T13:51:16.748Z,20.70
2018-04-16T13:52:16.743Z,20.48
2018-04-16T13:53:16.770Z,20.35
2018-04-16T13:54:16.767Z,20.43
2018-04-16T13:55:16.762Z,20.31
2018-04-16T13:56:16.748Z,20.06
2018-04-16T13:57:16.744Z,19.88
2018-04-16T13:58:16.787Z,19.92
2018-04-16T13:59:16.769Z,20.02
2018-04-16T14:00:16.761Z,20.05
2018-04-16T14:01:16.735Z,19.96
2018-04-16T14:02:16.761Z,20.20
2018-04-16T14:03:16.765Z,20.42
2018-04-16T14:04:16.746Z,20.51
2018-04-16T14:05:16.746Z,20.50
2018-04-16T14:06:16.751Z,20.35
2018-04-16T14:07:16.755Z,20.24
2018-04-16T14:08:16.808Z,20.11
2018-04-16T14:09:16.742Z,20.13
2018-04-16T14:10:16.743Z,20.32
2018-04-16T14:11:16.742Z,20.58
2018-04-16T14:12:16.740Z,20.84
2018-04-16T14:13:16.743Z,20.92
2018-04-16T14:14:16.789Z,21.13
2018-04-16T14:15:16.743Z,21.16
2018-04-16T14:16:16.726Z,21.31
2018-04-16T14:17:16.733Z,21.28
2018-04-16T14:18:16.713Z,21.28
2018-04-16T14:19:16.724Z,21.32
2018-04-16T14:20:16.726Z,21.49
2018-04-16T14:21:16.728Z,21.50
2018-04-16T14:22:16.736Z,21.35
2018-04-16T14:23:16.719Z,21.19
2018-04-16T14:24:16.775Z,20.95
2018-04-16T14:25:16.763Z,20.69
2018-04-16T14:26:16.706Z,20.50
2018-04-16T14:27:16.727Z,20.55
2018-04-16T14:28:16.709Z,20.64
2018-04-16T14:29:16.861Z,20.61
2018-04-16T14:30:16.745Z,20.47
2018-04-16T14:31:16.701Z,20.32
2018-04-16T14:32:16.703Z,20.14
2018-04-16T14:33:16.693Z,19.95
2018-04-16T14:34:16.704Z,19.84
2018-04-16T14:35:16.696Z,19.66
2018-04-16T14:36:16.723Z,19.68
2018-04-16T14:37:16.714Z,19.62
2018-04-16T14:38:16.686Z,19.48
2018-04-16T14:39:16.714Z,19.40
2018-04-16T14:40:16.840Z,19.46
2018-04-16T14:41:16.711Z,19.47
2018-04-16T14:42:16.698Z,19.46
2018-04-16T14:43:16.697Z,19.58
2018-04-16T14:44:16.685Z,19.54
2018-04-16T14:45:16.685Z,19.56
2018-04-16T14:46:16.721Z,19.50
2018-04-16T14:47:16.684Z,19.43
2018-04-16T14:48:16.681Z,19.50
2018-04-16T14:49:16.653Z,19.31
2018-04-16T14:50:16.650Z,19.21
2018-04-16T14:51:16.717Z,19.22
2018-04-16T14:52:16.647Z,19.23
2018-04-16T14:53:16.664Z,19.31
2018-04-16T14:54:16.671Z,19.32
2018-04-16T14:55:16.653Z,19.23
2018-04-16T14:56:16.642Z,19.22
2018-04-16T14:57:16.642Z,19.19
2018-04-16T14:58:16.747Z,19.11
2018-04-16T14:59:16.639Z,19.00
2018-04-16T15:00:16.624Z,18.90
2018-04-16T15:01:16.689Z,18.98
2018-04-16T15:02:16.636Z,18.85
2018-04-16T15:03:16.626Z,18.63
2018-04-16T15:04:16.619Z,18.69
2018-04-16T15:05:16.624Z,18.69
2018-04-16T15:06:16.610Z,18.90
2018-04-16T15:07:16.588Z,19.07
2018-04-16T15:08:16.712Z,19.19
2018-04-16T15:09:16.596Z,19.37
2018-04-16T15:10:16.596Z,19.46
2018-04-16T15:11:16.599Z,19.46
2018-04-16T15:12:16.581Z,19.59
2018-04-16T15:13:16.576Z,19.68
2018-04-16T15:14:16.555Z,19.54
2018-04-16T15:15:16.569Z,19.44
2018-04-16T15:16:16.563Z,19.44
2018-04-16T15:17:16.538Z,19.33
2018-04-16T15:18:16.529Z,19.28
2018-04-16T15:19:16.551Z,19.10
2018-04-16T15:20:16.613Z,19.02
2018-04-16T15:21:16.519Z,18.94
2018-04-16T15:22:16.542Z,19.16
2018-04-16T15:23:16.521Z,19.23
2018-04-16T15:24:16.524Z,19.29
2018-04-16T15:25:16.523Z,19.19
2018-04-16T15:26:16.543Z,19.21
2018-04-16T15:27:16.517Z,19.41
2018-04-16T15:28:16.505Z,19.50
2018-04-16T15:29:16.513Z,19.59
2018-04-16T15:30:16.510Z,19.65
2018-04-16T15:31:16.876Z,19.74
2018-04-16T15:32:16.493Z,19.62
2018-04-16T15:33:16.484Z,19.55
2018-04-16T15:34:16.485Z,19.48
2018-04-16T15:35:16.479Z,19.54
2018-04-16T15:36:16.471Z,19.47
2018-04-16T15:37:16.479Z,19.48
2018-04-16T15:38:16.436Z,19.43
2018-04-16T15:39:16.464Z,19.44
2018-04-16T15:40:16.446Z,19.25
2018-04-16T15:41:16.442Z,19.23
2018-04-16T15:42:16.483Z,19.21
2018-04-16T15:43:16.446Z,19.16
2018-04-16T15:44:16.445Z,19.22
2018-04-16T15:45:16.435Z,19.13
2018-04-16T15:46:16.425Z,19.00
2018-04-16T15:47:16.461Z,18.94
2018-04-16T15:48:16.396Z,18.92
2018-04-16T15:49:16.391Z,18.87
2018-04-16T15:50:16.383Z,18.81
2018-04-16T15:51:16.412Z,18.73
2018-04-16T15:52:16.481Z,18.73
2018-04-16T15:53:16.382Z,18.66
2018-04-16T15:54:16.398Z,18.65
2018-04-16T15:55:16.383Z,18.70
2018-04-16T15:56:16.390Z,18.70
2018-04-16T15:57:16.369Z,18.76
2018-04-16T15:58:16.404Z,18.75
2018-04-16T15:59:16.364Z,18.54
2018-04-16T16:00:16.361Z,18.51
2018-04-16T16:01:16.331Z,18.58
2018-04-16T16:02:16.360Z,18.55
2018-04-16T16:03:16.354Z,18.50
2018-04-16T16:04:16.335Z,18.57
2018-04-16T16:05:16.330Z,18.55
2018-04-16T16:06:16.325Z,18.47
2018-04-16T16:07:16.327Z,18.47
2018-04-16T16:08:16.321Z,18.42
2018-04-16T16:09:16.340Z,18.36
2018-04-16T16:10:16.314Z,18.35
2018-04-16T16:11:16.279Z,18.30
2018-04-16T16:12:16.300Z,18.35
2018-04-16T16:13:16.278Z,18.30
2018-04-16T16:14:16.301Z,18.39
2018-04-16T16:15:16.324Z,18.32
2018-04-16T16:16:16.249Z,18.20
2018-04-16T16:17:16.260Z,18.29
2018-04-16T16:18:16.319Z,18.32
2018-04-16T16:19:16.248Z,18.35
2018-04-16T16:20:16.230Z,18.25
2018-04-16T16:21:16.244Z,18.32
2018-04-16T16:22:16.242Z,18.30
2018-04-16T16:23:16.234Z,18.33
2018-04-16T16:24:16.236Z,18.25
2018-04-16T16:25:16.207Z,18.18
2018-04-16T16:26:16.191Z,18.25
2018-04-16T16:27:16.227Z,18.36
2018-04-16T16:28:16.363Z,18.33
2018-04-16T16:29:16.168Z,18.39
2018-04-16T16:30:16.249Z,18.36
2018-04-16T16:31:16.185Z,18.42
2018-04-16T16:32:16.156Z,18.44
2018-04-16T16:33:16.167Z,18.37
2018-04-16T16:34:16.140Z,18.35
2018-04-16T16:35:16.183Z,18.23
2018-04-16T16:36:16.148Z,18.23
2018-04-16T16:37:16.146Z,18.14
2018-04-16T16:38:16.131Z,18.07
2018-04-16T16:39:16.134Z,18.05
2018-04-16T16:40:16.149Z,17.93
2018-04-16T16:41:16.414Z,17.77
2018-04-16T16:42:16.111Z,17.79
2018-04-16T16:43:16.106Z,17.71
2018-04-16T16:44:16.096Z,17.71
2018-04-16T16:45:16.101Z,17.68
2018-04-16T16:46:16.099Z,17.66
2018-04-16T16:47:16.131Z,17.70
2018-04-16T16:48:16.080Z,17.63
2018-04-16T16:49:16.072Z,17.62
2018-04-16T16:50:16.052Z,17.52
2018-04-16T16:51:16.061Z,17.46
2018-04-16T16:52:16.498Z,17.56
2018-04-16T16:53:16.025Z,17.51
2018-04-16T16:54:16.076Z,17.43
2018-04-16T16:55:16.015Z,17.55
2018-04-16T16:56:16.030Z,17.56
2018-04-16T16:57:16.007Z,17.44
2018-04-16T16:58:16.030Z,17.56
2018-04-16T16:59:16.016Z,17.49
2018-04-16T17:00:15.992Z,17.54
2018-04-16T17:01:15.993Z,17.54
2018-04-16T17:02:15.971Z,17.54
2018-04-16T17:03:16.016Z,17.58
2018-04-16T17:04:15.982Z,17.58
2018-04-16T17:05:15.955Z,17.66
2018-04-16T17:06:15.957Z,17.63
2018-04-16T17:07:16.009Z,17.55
2018-04-16T17:08:16.290Z,17.58
2018-04-16T17:09:15.936Z,17.64
2018-04-16T17:10:15.998Z,17.55
2018-04-16T17:11:15.901Z,17.54
2018-04-16T17:12:15.896Z,17.43
2018-04-16T17:13:15.901Z,17.54
2018-04-16T17:14:15.926Z,17.54
2018-04-16T17:15:15.899Z,17.48
2018-04-16T17:16:15.865Z,17.56
2018-04-16T17:17:15.884Z,17.46
2018-04-16T17:18:15.846Z,17.49
2018-04-16T17:19:15.888Z,17.62
2018-04-16T17:20:15.881Z,17.55
2018-04-16T17:21:15.863Z,17.54
2018-04-16T17:22:15.872Z,17.66
2018-04-16T17:23:15.845Z,17.59
2018-04-16T17:24:15.970Z,17.58
2018-04-16T17:25:15.828Z,17.58
2018-04-16T17:26:15.807Z,17.54